createdAt,value
2019-06-15T00:00:29.111Z,74.50
2019-06-15T00:02:55.226Z,74.48
2019-06-15T00:05:21.123Z,74.46
2019-06-15T00:07:47.072Z,74.53
2019-06-15T00:10:13.165Z,74.67
2019-06-15T00:12:39.517Z,74.76
2019-06-15T00:15:05.848Z,74.75
2019-06-15T00:17:31.748Z,74.71
2019-06-15T00:19:57.681Z,74.70
2019-06-15T00:22:23.635Z,74.75
2019-06-15T00:24:49.553Z,74.78
2019-06-15T00:27:15.627Z,74.82
2019-06-15T00:29:41.610Z,74.97
2019-06-15T00:32:07.622Z,75.08
2019-06-15T00:34:33.505Z,75.14
2019-06-15T00:36:59.456Z,75.06
2019-06-15T00:39:25.426Z,75.08
2019-06-15T00:41:51.389Z,75.35
2019-06-15T00:44:17.295Z,75.43
2019-06-15T00:46:43.216Z,75.59
2019-06-15T00:49:09.211Z,75.71
2019-06-15T00:51:35.150Z,75.77
2019-06-15T00:54:01.255Z,75.87
2019-06-15T00:56:27.212Z,75.97
2019-06-15T00:58:53.219Z,76.08
2019-06-15T01:01:19.123Z,76.06
2019-06-15T01:03:45.289Z,76.04
2019-06-15T01:06:11.187Z,76.03
2019-06-15T01:08:37.199Z,76.04
2019-06-15T01:11:03.301Z,76.01
2019-06-15T01:13:29.381Z,76.05
2019-06-15T01:15:55.396Z,76.14
2019-06-15T01:18:21.344Z,76.18
2019-06-15T01:20:47.359Z,76.31
2019-06-15T01:23:13.258Z,76.42
2019-06-15T01:25:39.215Z,76.49
2019-06-15T01:28:05.208Z,76.50
2019-06-15T01:30:31.212Z,76.59
2019-06-15T01:32:57.337Z,76.81
2019-06-15T01:35:23.339Z,76.96
2019-06-15T01:37:49.337Z,77.20
2019-06-15T01:40:15.777Z,77.33
2019-06-15T01:42:41.673Z,77.29
2019-06-15T01:45:08.091Z,77.43
2019-06-15T01:47:34.316Z,77.52
2019-06-15T01:50:00.202Z,77.43
2019-06-15T01:52:26.244Z,77.39
2019-06-15T01:54:52.157Z,77.38
2019-06-15T01:57:18.480Z,77.32
2019-06-15T01:59:44.396Z,77.37
2019-06-15T02:02:10.294Z,77.44
2019-06-15T02:04:36.410Z,77.65
2019-06-15T02:07:02.520Z,77.85
2019-06-15T02:09:28.561Z,77.92
2019-06-15T02:11:55.799Z,77.92
2019-06-15T02:14:21.979Z,77.92
2019-06-15T02:16:47.916Z,77.82
2019-06-15T02:19:13.791Z,77.80
2019-06-15T02:21:39.787Z,77.80
2019-06-15T02:24:05.934Z,77.83
2019-06-15T02:26:31.957Z,77.91
2019-06-15T02:28:57.943Z,78.18
2019-06-15T02:31:24.105Z,78.39
2019-06-15T02:33:50.046Z,78.57
2019-06-15T02:36:15.918Z,78.56
2019-06-15T02:38:41.962Z,78.67
2019-06-15T02:41:08.089Z,78.69
2019-06-15T02:43:33.989Z,78.81
2019-06-15T02:46:00.212Z,78.75
2019-06-15T02:48:26.323Z,78.62
2019-06-15T02:50:52.427Z,78.59
2019-06-15T02:53:18.327Z,78.70
2019-06-15T02:55:50.753Z,78.73
2019-06-15T02:58:12.287Z,78.79
2019-06-15T03:00:47.882Z,78.79
2019-06-15T03:03:14.311Z,78.83
2019-06-15T03:05:40.624Z,78.82
2019-06-15T03:08:06.678Z,78.75
2019-06-15T03:10:32.607Z,78.81
2019-06-15T03:12:59.097Z,78.86
2019-06-15T03:15:25.240Z,78.85
2019-06-15T03:17:51.175Z,78.66
2019-06-15T03:20:18.344Z,78.66
2019-06-15T03:22:44.213Z,78.72
2019-06-15T03:25:11.030Z,78.79
2019-06-15T03:27:37.035Z,78.62
2019-06-15T03:30:06.300Z,78.68
2019-06-15T03:32:32.212Z,78.73
2019-06-15T03:34:58.124Z,78.72
2019-06-15T03:37:24.184Z,78.67
2019-06-15T03:39:50.109Z,78.85
2019-06-15T03:42:16.218Z,78.93
2019-06-15T03:44:42.155Z,79.10
2019-06-15T03:47:08.073Z,79.24
2019-06-15T03:49:33.983Z,79.28
2019-06-15T03:51:59.890Z,79.28
2019-06-15T03:54:25.790Z,79.15
2019-06-15T03:56:51.705Z,79.21
2019-06-15T03:59:17.784Z,79.23
2019-06-15T04:01:48.749Z,79.21
2019-06-15T04:04:14.763Z,79.06
2019-06-15T04:06:40.883Z,79.13
2019-06-15T04:09:07.383Z,79.16
2019-06-15T04:11:33.508Z,79.14
2019-06-15T04:13:59.432Z,79.08
2019-06-15T04:16:25.531Z,79.03
2019-06-15T04:18:51.588Z,79.24
2019-06-15T04:21:17.717Z,79.30
2019-06-15T04:23:43.719Z,79.41
2019-06-15T04:26:09.858Z,79.57
2019-06-15T04:28:35.787Z,79.71
2019-06-15T04:31:01.786Z,79.69
2019-06-15T04:33:27.813Z,79.84
2019-06-15T04:35:53.747Z,79.82
2019-06-15T04:38:19.669Z,79.82
2019-06-15T04:40:45.578Z,79.80
2019-06-15T04:43:11.565Z,79.67
2019-06-15T04:45:37.483Z,79.55
2019-06-15T04:48:03.968Z,79.52
2019-06-15T04:50:29.862Z,79.39
2019-06-15T04:52:56.074Z,79.33
2019-06-15T04:55:22.030Z,79.41
2019-06-15T04:57:47.929Z,79.41
2019-06-15T05:00:14.070Z,79.37
2019-06-15T05:02:40.125Z,79.36
2019-06-15T05:05:07.021Z,79.33
2019-06-15T05:07:33.308Z,79.15
2019-06-15T05:09:59.395Z,79.26
2019-06-15T05:12:25.316Z,79.26
2019-06-15T05:14:51.231Z,79.28
2019-06-15T05:17:17.454Z,79.08
2019-06-15T05:19:43.470Z,79.16
2019-06-15T05:22:09.392Z,79.13
2019-06-15T05:24:35.317Z,79.15
2019-06-15T05:27:06.376Z,79.13
2019-06-15T05:29:29.068Z,79.19
2019-06-15T05:31:54.973Z,79.14
2019-06-15T05:34:20.892Z,79.15
2019-06-15T05:36:46.911Z,79.14
2019-06-15T05:39:12.853Z,79.30
2019-06-15T05:41:38.730Z,79.36
2019-06-15T05:44:04.734Z,79.24
2019-06-15T05:46:30.772Z,79.26
2019-06-15T05:48:56.800Z,79.35
2019-06-15T05:51:22.716Z,79.50
2019-06-15T05:53:48.623Z,79.63
2019-06-15T05:56:14.618Z,79.55
2019-06-15T05:58:40.520Z,79.51
2019-06-15T06:01:06.498Z,79.62
2019-06-15T06:03:32.428Z,79.76
2019-06-15T06:05:58.325Z,79.85
2019-06-15T06:08:24.360Z,79.96
2019-06-15T06:10:50.264Z,80.02
2019-06-15T06:13:16.185Z,79.96
2019-06-15T06:15:42.256Z,79.89
2019-06-15T06:18:08.470Z,79.98
2019-06-15T06:20:34.378Z,79.85
2019-06-15T06:23:00.301Z,79.82
2019-06-15T06:25:26.227Z,79.89
2019-06-15T06:27:52.145Z,79.86
2019-06-15T06:30:18.378Z,79.82
2019-06-15T06:32:44.277Z,79.75
2019-06-15T06:35:10.473Z,79.75
2019-06-15T06:37:36.571Z,79.79
2019-06-15T06:40:06.145Z,79.89
2019-06-15T06:42:32.050Z,79.89
2019-06-15T06:44:58.177Z,79.84
2019-06-15T06:47:24.130Z,79.71
2019-06-15T06:49:50.107Z,79.72
2019-06-15T06:52:16.009Z,79.68
2019-06-15T06:54:41.919Z,79.66
2019-06-15T06:57:07.939Z,79.59
2019-06-15T06:59:33.842Z,79.48
2019-06-15T07:01:59.917Z,79.33
2019-06-15T07:04:25.963Z,79.31
2019-06-15T07:06:51.993Z,79.31
2019-06-15T07:09:18.196Z,79.35
2019-06-15T07:11:44.263Z,79.32
2019-06-15T07:14:10.436Z,79.18
2019-06-15T07:16:36.499Z,79.11
2019-06-15T07:19:02.826Z,78.96
2019-06-15T07:21:28.818Z,78.87
2019-06-15T07:23:54.707Z,78.86
2019-06-15T07:26:20.733Z,78.82
2019-06-15T07:28:46.667Z,78.73
2019-06-15T07:31:12.555Z,78.58
2019-06-15T07:33:38.488Z,78.52
2019-06-15T07:36:04.385Z,78.29
2019-06-15T07:38:30.395Z,78.12
2019-06-15T07:40:56.434Z,78.01
2019-06-15T07:43:22.342Z,77.77
2019-06-15T07:45:48.246Z,77.62
2019-06-15T07:48:14.185Z,77.44
2019-06-15T07:50:40.105Z,77.29
2019-06-15T07:53:06.116Z,77.13
2019-06-15T07:55:32.836Z,77.01
2019-06-15T07:57:58.753Z,76.92
2019-06-15T08:00:25.071Z,76.91
2019-06-15T08:02:51.093Z,76.90
2019-06-15T08:05:17.270Z,76.94
2019-06-15T08:07:43.376Z,76.76
2019-06-15T08:10:10.023Z,76.40
2019-06-15T08:12:36.044Z,76.18
2019-06-15T08:15:04.161Z,76.06
2019-06-15T08:17:30.083Z,75.94
2019-06-15T08:19:56.197Z,75.93
2019-06-15T08:22:22.202Z,75.84
2019-06-15T08:24:48.438Z,75.63
2019-06-15T08:27:14.430Z,75.52
2019-06-15T08:29:40.345Z,75.26
2019-06-15T08:32:06.370Z,75.28
2019-06-15T08:34:32.424Z,75.25
2019-06-15T08:36:58.452Z,75.00
2019-06-15T08:39:24.391Z,74.85
2019-06-15T08:41:50.289Z,74.62
2019-06-15T08:44:16.325Z,74.35
2019-06-15T08:46:42.390Z,73.82
2019-06-15T08:49:08.410Z,73.46
2019-06-15T08:51:34.326Z,72.94
2019-06-15T08:54:00.266Z,72.64
2019-06-15T08:56:26.372Z,72.46
2019-06-15T08:58:55.527Z,71.97
2019-06-15T09:01:20.307Z,71.52
2019-06-15T09:03:49.346Z,70.85
2019-06-15T09:06:14.327Z,70.35
2019-06-15T09:08:40.379Z,70.16
2019-06-15T09:11:06.483Z,70.28
2019-06-15T09:13:32.415Z,69.37
2019-06-15T09:15:58.643Z,68.64
2019-06-15T09:18:24.688Z,67.62
2019-06-15T09:20:52.789Z,67.71
2019-06-15T09:23:19.254Z,67.61
2019-06-15T09:25:45.257Z,67.34
2019-06-15T09:28:11.266Z,66.85
2019-06-15T09:30:37.440Z,66.55
2019-06-15T09:33:03.531Z,66.64
2019-06-15T09:35:29.631Z,66.42
2019-06-15T09:37:55.676Z,65.76
2019-06-15T09:40:21.818Z,65.51
2019-06-15T09:42:47.730Z,65.27
2019-06-15T09:45:13.833Z,64.60
2019-06-15T09:47:39.762Z,64.46
2019-06-15T09:50:06.298Z,63.90
2019-06-15T09:52:32.289Z,63.37
2019-06-15T09:54:58.224Z,62.13
2019-06-15T09:57:24.122Z,60.42
2019-06-15T09:59:50.019Z,59.00
2019-06-15T10:02:16.146Z,57.55
2019-06-15T10:04:42.072Z,56.84
2019-06-15T10:07:08.079Z,55.37
2019-06-15T10:09:34.005Z,53.54
2019-06-15T10:12:00.328Z,53.21
2019-06-15T10:14:26.236Z,52.28
2019-06-15T10:16:52.282Z,51.32
2019-06-15T10:19:18.198Z,50.17
2019-06-15T10:21:44.373Z,49.30
2019-06-15T10:24:10.278Z,46.54
2019-06-15T10:26:36.297Z,45.87
2019-06-15T10:29:02.633Z,46.15
2019-06-15T10:31:28.690Z,45.74
2019-06-15T10:33:54.642Z,44.18
2019-06-15T10:36:20.795Z,44.75
2019-06-15T10:38:46.818Z,44.88
2019-06-15T10:41:12.730Z,44.41
2019-06-15T10:43:38.631Z,44.01
2019-06-15T10:46:04.568Z,44.12
2019-06-15T10:48:30.596Z,43.94
2019-06-15T10:50:56.680Z,43.27
2019-06-15T10:53:22.641Z,43.06
2019-06-15T10:55:48.565Z,42.63
2019-06-15T10:58:14.570Z,41.88
2019-06-15T11:00:40.807Z,41.27
2019-06-15T11:03:06.812Z,41.87
2019-06-15T11:05:32.815Z,41.46
2019-06-15T11:07:58.962Z,40.77
2019-06-15T11:10:34.398Z,41.00
2019-06-15T11:13:00.934Z,41.31
2019-06-15T11:15:26.931Z,41.66
2019-06-15T11:17:52.933Z,41.03
2019-06-15T11:20:19.073Z,41.32
2019-06-15T11:22:45.529Z,41.65
2019-06-15T11:25:11.619Z,41.43
2019-06-15T11:27:39.577Z,41.34
2019-06-15T11:30:13.433Z,41.26
2019-06-15T11:32:33.899Z,41.00
2019-06-15T11:34:59.837Z,41.22
2019-06-15T11:37:25.788Z,40.72
2019-06-15T11:39:51.777Z,40.20
2019-06-15T11:42:17.722Z,40.39
2019-06-15T11:44:43.656Z,40.67
2019-06-15T11:47:09.781Z,40.60
2019-06-15T11:49:35.808Z,40.59
2019-06-15T11:52:01.923Z,40.43
2019-06-15T11:54:27.934Z,40.44
2019-06-15T11:56:53.954Z,40.53
2019-06-15T11:59:19.966Z,40.61
2019-06-15T12:01:45.990Z,40.10
2019-06-15T12:04:11.899Z,40.10
2019-06-15T12:06:38.034Z,39.95
2019-06-15T12:09:05.887Z,40.05
2019-06-15T12:11:31.824Z,39.92
2019-06-15T12:13:58.026Z,38.79
2019-06-15T12:16:24.057Z,38.13
2019-06-15T12:18:50.165Z,38.00
2019-06-15T12:21:16.049Z,37.68
2019-06-15T12:23:42.164Z,37.65
2019-06-15T12:26:08.314Z,37.79
2019-06-15T12:28:34.306Z,37.74
2019-06-15T12:31:00.411Z,37.65
2019-06-15T12:33:26.454Z,37.63
2019-06-15T12:35:52.471Z,37.08
2019-06-15T12:38:18.647Z,37.14
2019-06-15T12:40:44.595Z,37.20
2019-06-15T12:43:10.590Z,37.04
2019-06-15T12:45:36.593Z,36.64
2019-06-15T12:48:02.719Z,36.80
2019-06-15T12:50:28.747Z,36.86
2019-06-15T12:52:54.736Z,37.37
2019-06-15T12:55:20.864Z,37.83
2019-06-15T12:57:46.992Z,38.05
2019-06-15T13:00:13.800Z,38.89
2019-06-15T13:02:39.955Z,39.80
2019-06-15T13:05:06.452Z,40.68
2019-06-15T13:07:32.626Z,40.66
2019-06-15T13:09:58.531Z,41.08
2019-06-15T13:12:24.440Z,41.60
2019-06-15T13:14:50.833Z,41.97
2019-06-15T13:17:16.793Z,41.97
2019-06-15T13:19:42.683Z,41.89
2019-06-15T13:22:08.787Z,41.33
2019-06-15T13:24:34.716Z,41.19
2019-06-15T13:27:00.709Z,41.79
2019-06-15T13:29:26.802Z,41.23
2019-06-15T13:31:52.744Z,40.70
2019-06-15T13:34:18.779Z,40.79
2019-06-15T13:36:44.848Z,40.75
2019-06-15T13:39:10.889Z,40.59
2019-06-15T13:41:36.785Z,40.20
2019-06-15T13:44:03.050Z,40.44
2019-06-15T13:46:29.105Z,40.77
2019-06-15T13:48:55.016Z,41.31
2019-06-15T13:51:21.334Z,41.57
2019-06-15T13:53:47.243Z,41.38
2019-06-15T13:56:13.144Z,41.22
2019-06-15T13:58:39.310Z,40.88
2019-06-15T14:01:05.372Z,40.74
2019-06-15T14:03:31.390Z,40.79
2019-06-15T14:05:57.473Z,40.74
2019-06-15T14:08:23.476Z,40.73
2019-06-15T14:10:49.376Z,40.85
2019-06-15T14:13:15.359Z,40.80
2019-06-15T14:15:41.556Z,40.87
2019-06-15T14:18:07.486Z,40.89
2019-06-15T14:20:33.788Z,41.27
2019-06-15T14:22:59.825Z,41.43
2019-06-15T14:25:25.847Z,41.60
2019-06-15T14:27:51.891Z,42.06
2019-06-15T14:30:18.240Z,42.20
2019-06-15T14:32:44.322Z,41.78
2019-06-15T14:35:11.411Z,41.15
2019-06-15T14:37:37.330Z,40.73
2019-06-15T14:40:03.760Z,40.61
2019-06-15T14:42:29.850Z,40.85
2019-06-15T14:44:55.756Z,41.07
2019-06-15T14:47:22.075Z,41.11
2019-06-15T14:49:48.132Z,41.14
2019-06-15T14:52:14.067Z,41.10
2019-06-15T14:54:40.091Z,40.64
2019-06-15T14:57:06.846Z,40.63
2019-06-15T14:59:32.810Z,40.82
2019-06-15T15:02:09.994Z,40.97
2019-06-15T15:04:26.876Z,40.76
2019-06-15T15:06:53.038Z,40.63
2019-06-15T15:09:18.944Z,40.78
2019-06-15T15:11:46.122Z,40.97
2019-06-15T15:14:12.192Z,41.25
2019-06-15T15:16:38.421Z,41.51
2019-06-15T15:19:06.106Z,41.71
2019-06-15T15:21:32.115Z,41.44
2019-06-15T15:23:58.126Z,41.42
2019-06-15T15:26:26.535Z,41.29
2019-06-15T15:28:52.320Z,41.59
2019-06-15T15:31:18.227Z,41.59
2019-06-15T15:33:47.402Z,41.77
2019-06-15T15:36:12.579Z,41.64
2019-06-15T15:38:38.475Z,41.17
2019-06-15T15:41:06.706Z,41.32
2019-06-15T15:43:32.717Z,41.39
2019-06-15T15:45:58.738Z,41.68
2019-06-15T15:48:25.889Z,41.29
2019-06-15T15:50:51.942Z,40.81
2019-06-15T15:53:17.968Z,40.56
2019-06-15T15:55:46.616Z,40.27
2019-06-15T15:58:11.961Z,39.92
2019-06-15T16:00:38.170Z,39.57
2019-06-15T16:03:06.807Z,39.40
2019-06-15T16:05:32.391Z,39.21
2019-06-15T16:07:58.661Z,38.84
2019-06-15T16:10:26.695Z,38.53
2019-06-15T16:12:53.373Z,38.93
2019-06-15T16:15:19.493Z,38.85
2019-06-15T16:17:46.468Z,38.61
2019-06-15T16:20:17.432Z,38.35
2019-06-15T16:22:45.936Z,37.88
2019-06-15T16:25:12.259Z,38.32
2019-06-15T16:27:38.266Z,38.63
2019-06-15T16:30:06.447Z,38.68
2019-06-15T16:32:32.596Z,38.71
2019-06-15T16:34:58.561Z,38.68
2019-06-15T16:37:26.022Z,38.86
2019-06-15T16:39:52.419Z,39.23
2019-06-15T16:42:18.496Z,39.13
2019-06-15T16:44:46.801Z,39.05
2019-06-15T16:47:13.037Z,39.10
2019-06-15T16:49:39.069Z,39.27
2019-06-15T16:52:06.228Z,39.58
2019-06-15T16:54:32.329Z,39.74
2019-06-15T16:56:58.235Z,39.92
2019-06-15T16:59:24.140Z,40.04
2019-06-15T17:01:50.229Z,40.08
2019-06-15T17:04:16.667Z,40.17
2019-06-15T17:06:42.756Z,40.21
2019-06-15T17:09:08.840Z,40.27
2019-06-15T17:11:36.710Z,40.33
2019-06-15T17:14:02.840Z,40.50
2019-06-15T17:16:28.920Z,40.59
2019-06-15T17:18:56.205Z,40.85
2019-06-15T17:21:22.341Z,41.25
2019-06-15T17:23:48.358Z,41.36
2019-06-15T17:26:16.671Z,41.68
2019-06-15T17:28:42.356Z,42.07
2019-06-15T17:31:08.665Z,42.32
2019-06-15T17:33:38.229Z,42.74
2019-06-15T17:36:03.221Z,43.20
2019-06-15T17:38:30.450Z,43.58
2019-06-15T17:40:57.095Z,44.12
2019-06-15T17:43:23.184Z,44.38
2019-06-15T17:45:49.290Z,44.77
2019-06-15T17:48:17.381Z,45.05
2019-06-15T17:50:47.465Z,45.34
2019-06-15T17:53:13.084Z,45.61
2019-06-15T17:55:39.092Z,45.78
2019-06-15T17:58:06.508Z,45.97
2019-06-15T18:00:39.248Z,46.40
2019-06-15T18:03:06.847Z,46.61
2019-06-15T18:05:32.967Z,46.95
2019-06-15T18:08:01.585Z,47.10
2019-06-15T18:10:26.863Z,47.24
2019-06-15T18:12:52.886Z,47.52
2019-06-15T18:15:18.907Z,47.96
2019-06-15T18:17:44.927Z,48.29
2019-06-15T18:20:11.858Z,48.40
2019-06-15T18:22:37.936Z,48.68
2019-06-15T18:25:06.433Z,48.80
2019-06-15T18:27:32.602Z,49.03
2019-06-15T18:29:58.619Z,49.21
2019-06-15T18:32:26.448Z,49.29
2019-06-15T18:34:52.343Z,49.45
2019-06-15T18:37:18.443Z,49.58
2019-06-15T18:39:46.613Z,49.71
2019-06-15T18:42:12.300Z,49.89
2019-06-15T18:44:38.577Z,50.10
2019-06-15T18:47:06.930Z,50.07
2019-06-15T18:49:32.416Z,50.15
2019-06-15T18:51:58.432Z,50.42
2019-06-15T18:54:26.545Z,50.72
2019-06-15T18:56:52.259Z,50.80
2019-06-15T18:59:18.494Z,50.83
2019-06-15T19:01:46.812Z,50.87
2019-06-15T19:04:24.631Z,50.81
2019-06-15T19:06:40.311Z,51.12
2019-06-15T19:09:07.145Z,51.45
2019-06-15T19:11:33.080Z,51.77
2019-06-15T19:13:59.114Z,52.08
2019-06-15T19:16:25.127Z,52.67
2019-06-15T19:18:51.077Z,53.20
2019-06-15T19:21:17.179Z,53.53
2019-06-15T19:23:43.067Z,54.18
2019-06-15T19:26:09.170Z,54.68
2019-06-15T19:28:37.054Z,55.12
2019-06-15T19:31:03.423Z,55.34
2019-06-15T19:33:29.342Z,55.58
2019-06-15T19:35:56.938Z,55.76
2019-06-15T19:38:23.048Z,55.90
2019-06-15T19:40:49.169Z,56.09
2019-06-15T19:43:16.225Z,56.20
2019-06-15T19:45:42.409Z,56.52
2019-06-15T19:48:08.445Z,56.69
2019-06-15T19:50:36.198Z,57.04
2019-06-15T19:53:02.623Z,57.28
2019-06-15T19:55:28.564Z,57.49
2019-06-15T19:57:56.740Z,57.69
2019-06-15T20:00:22.471Z,57.81
2019-06-15T20:02:48.503Z,58.16
2019-06-15T20:05:14.854Z,58.35
2019-06-15T20:07:40.879Z,58.44
2019-06-15T20:10:10.572Z,58.73
2019-06-15T20:12:37.444Z,58.89
2019-06-15T20:15:06.379Z,58.97
2019-06-15T20:17:32.566Z,59.20
2019-06-15T20:19:58.659Z,59.42
2019-06-15T20:22:27.474Z,59.62
2019-06-15T20:24:52.662Z,59.80
2019-06-15T20:27:18.851Z,59.80
2019-06-15T20:29:47.353Z,59.98
2019-06-15T20:32:12.781Z,60.16
2019-06-15T20:34:38.862Z,60.39
2019-06-15T20:37:04.803Z,60.60
2019-06-15T20:39:30.688Z,60.87
2019-06-15T20:41:56.763Z,61.06
2019-06-15T20:44:22.720Z,61.15
2019-06-15T20:46:48.637Z,61.29
2019-06-15T20:49:14.683Z,61.39
2019-06-15T20:51:40.829Z,61.44
2019-06-15T20:54:07.170Z,61.55
2019-06-15T20:56:33.617Z,61.68
2019-06-15T20:58:59.659Z,61.75
2019-06-15T21:01:26.096Z,61.96
2019-06-15T21:03:52.155Z,62.07
2019-06-15T21:06:18.112Z,62.36
2019-06-15T21:08:44.022Z,62.53
2019-06-15T21:11:10.007Z,62.60
2019-06-15T21:13:37.422Z,62.91
2019-06-15T21:16:06.493Z,63.08
2019-06-15T21:18:33.973Z,63.11
2019-06-15T21:20:59.496Z,63.41
2019-06-15T21:23:26.852Z,63.60
2019-06-15T21:25:53.117Z,63.82
2019-06-15T21:28:19.023Z,63.92
2019-06-15T21:30:47.026Z,63.99
2019-06-15T21:33:14.431Z,64.03
2019-06-15T21:35:49.159Z,64.08
2019-06-15T21:38:08.373Z,64.06
2019-06-15T21:40:36.627Z,64.14
2019-06-15T21:43:02.468Z,64.22
2019-06-15T21:45:28.493Z,64.30
2019-06-15T21:47:56.088Z,64.40
2019-06-15T21:50:22.073Z,64.46
2019-06-15T21:52:47.983Z,64.61
2019-06-15T21:55:16.011Z,64.76
2019-06-15T21:57:42.048Z,64.82
2019-06-15T22:00:11.729Z,65.09
2019-06-15T22:02:37.754Z,65.33
2019-06-15T22:05:06.972Z,65.46
2019-06-15T22:07:32.675Z,65.69
2019-06-15T22:09:58.684Z,65.69
2019-06-15T22:12:26.798Z,65.88
2019-06-15T22:14:52.541Z,65.92
2019-06-15T22:17:18.558Z,66.07
2019-06-15T22:19:46.536Z,66.31
2019-06-15T22:22:12.275Z,66.42
2019-06-15T22:24:38.389Z,66.59
2019-06-15T22:27:06.674Z,66.67
2019-06-15T22:29:32.375Z,66.71
2019-06-15T22:31:58.504Z,66.82
2019-06-15T22:34:24.418Z,66.92
2019-06-15T22:36:50.350Z,66.93
2019-06-15T22:39:17.170Z,67.10
2019-06-15T22:41:43.286Z,67.16
2019-06-15T22:44:09.360Z,67.19
2019-06-15T22:46:35.535Z,67.21
2019-06-15T22:49:01.443Z,67.25
2019-06-15T22:51:27.723Z,67.46
2019-06-15T22:53:56.378Z,67.54
2019-06-15T22:56:21.605Z,67.71
2019-06-15T22:58:47.526Z,67.99
2019-06-15T23:01:13.710Z,68.07
2019-06-15T23:03:39.731Z,68.20
2019-06-15T23:06:06.963Z,68.21
2019-06-15T23:08:33.317Z,68.31
2019-06-15T23:10:59.235Z,68.29
2019-06-15T23:13:26.178Z,68.27
2019-06-15T23:15:52.364Z,68.31
2019-06-15T23:18:18.249Z,68.26
2019-06-15T23:20:46.254Z,68.29
2019-06-15T23:23:12.173Z,68.29
2019-06-15T23:25:38.397Z,68.29
2019-06-15T23:28:06.939Z,68.38
2019-06-15T23:30:32.446Z,68.41
2019-06-15T23:32:58.392Z,68.48
2019-06-15T23:35:31.908Z,68.46
2019-06-15T23:37:58.018Z,68.53
2019-06-15T23:40:26.912Z,68.51
2019-06-15T23:42:53.032Z,68.58
2019-06-15T23:45:19.784Z,68.60
2019-06-15T23:47:46.761Z,68.68
2019-06-15T23:50:13.156Z,68.74
2019-06-15T23:52:39.163Z,68.78
2019-06-15T23:55:06.198Z,68.85
2019-06-15T23:57:32.284Z,68.91
2019-06-15T23:59:58.288Z,69.00
